Time;durP1;ratioP1;P1;durP2;ratioP2;P2;SDS_P1;SDS_P2;PMS_P1;PMS_P2;Temp;Humidity;BMP_temperature;BMP_pressure;BME280_temperature;BME280_humidity;BME280_pressure;Samples;Min_cycle;Max_cycle;Signal;HPM_P1;HPM_P2
2022/10/02 00:02:03;;;;;;;1.50;1.50;;;;;;;;;;5034570;28;20225;-60
2022/10/02 00:04:38;;;;;;;1.50;1.50;;;;;;;;;;5028526;28;20762;-60
2022/10/02 00:07:09;;;;;;;1.50;1.50;;;;;;;;;;5022062;28;20840;-59
2022/10/02 00:09:38;;;;;;;1.40;1.40;;;;;;;;;;5004896;28;20225;-58
2022/10/02 00:12:07;;;;;;;1.57;1.57;;;;;;;;;;5030145;28;20643;-59
2022/10/02 00:14:33;;;;;;;1.30;1.30;;;;;;;;;;5038936;28;20228;-59
2022/10/02 00:16:59;;;;;;;1.17;1.17;;;;;;;;;;5032780;28;20303;-60
2022/10/02 00:19:25;;;;;;;1.40;1.40;;;;;;;;;;5028336;28;20580;-59
2022/10/02 00:22:04;;;;;;;1.10;1.10;;;;;;;;;;5042445;28;20677;-59
2022/10/02 00:24:36;;;;;;;1.40;1.40;;;;;;;;;;5030830;28;20259;-60
2022/10/02 00:27:14;;;;;;;1.10;1.10;;;;;;;;;;5033191;28;20596;-59
2022/10/02 00:29:50;;;;;;;1.23;1.23;;;;;;;;;;5017746;28;20246;-60
2022/10/02 00:32:31;;;;;;;1.10;1.10;;;;;;;;;;5023270;28;20215;-59
2022/10/02 00:35:15;;;;;;;1.30;1.30;;;;;;;;;;5040897;28;20788;-60
2022/10/02 00:37:44;;;;;;;1.30;1.30;;;;;;;;;;5006423;28;20278;-59
2022/10/02 00:40:19;;;;;;;1.20;1.20;;;;;;;;;;5011846;28;20231;-59
2022/10/02 00:42:58;;;;;;;1.30;1.30;;;;;;;;;;5018350;28;20223;-58
2022/10/02 00:45:33;;;;;;;1.30;1.30;;;;;;;;;;5026879;27;20238;-59
2022/10/02 00:48:22;;;;;;;1.40;1.40;;;;;;;;;;5017144;28;20254;-60
2022/10/02 00:50:51;;;;;;;1.20;1.20;;;;;;;;;;5016057;28;20323;-59
2022/10/02 00:53:36;;;;;;;1.37;1.37;;;;;;;;;;5028135;28;20247;-59
2022/10/02 00:56:11;;;;;;;1.30;1.30;;;;;;;;;;5018919;28;20265;-60
2022/10/02 00:58:37;;;;;;;1.10;1.10;;;;;;;;;;5027645;28;20231;-59
2022/10/02 01:01:05;;;;;;;1.20;1.20;;;;;;;;;;5029199;28;20229;-60
2022/10/02 01:03:37;;;;;;;1.20;1.20;;;;;;;;;;5048668;28;20688;-59
2022/10/02 01:06:03;;;;;;;1.43;1.43;;;;;;;;;;5038912;28;20249;-60
2022/10/02 01:08:29;;;;;;;1.30;1.30;;;;;;;;;;5027349;28;20233;-59
2022/10/02 01:10:55;;;;;;;1.30;1.30;;;;;;;;;;5022398;28;20726;-59
2022/10/02 01:13:21;;;;;;;1.00;1.00;;;;;;;;;;5031709;28;20216;-59
2022/10/02 01:15:54;;;;;;;1.20;1.20;;;;;;;;;;5021237;28;20243;-59
2022/10/02 01:18:20;;;;;;;1.20;1.20;;;;;;;;;;5019094;28;20251;-59
2022/10/02 01:20:46;;;;;;;1.00;1.00;;;;;;;;;;5004083;28;20606;-59
2022/10/02 01:23:24;;;;;;;1.20;1.20;;;;;;;;;;5018813;28;20236;-59
2022/10/02 01:25:50;;;;;;;1.03;1.03;;;;;;;;;;5003842;28;20918;-58
2022/10/02 01:28:16;;;;;;;1.40;1.40;;;;;;;;;;5040946;28;20665;-59
2022/10/02 01:30:43;;;;;;;1.30;1.30;;;;;;;;;;5039086;28;20230;-58
2022/10/02 01:33:09;;;;;;;1.20;1.20;;;;;;;;;;5032115;28;20256;-60
2022/10/02 01:35:35;;;;;;;1.20;1.20;;;;;;;;;;5037517;28;20220;-59
2022/10/02 01:38:05;;;;;;;1.30;1.30;;;;;;;;;;5017383;28;20224;-58
2022/10/02 01:40:32;;;;;;;1.00;1.00;;;;;;;;;;5029567;28;20271;-59
2022/10/02 01:42:59;;;;;;;1.10;1.10;;;;;;;;;;5039511;28;20217;-59
2022/10/02 01:45:32;;;;;;;1.10;1.10;;;;;;;;;;5036234;28;20232;-59
2022/10/02 01:48:01;;;;;;;1.37;1.37;;;;;;;;;;5033839;28;20224;-60
2022/10/02 01:50:27;;;;;;;1.20;1.20;;;;;;;;;;5032623;28;20276;-60
2022/10/02 01:53:02;;;;;;;1.20;1.20;;;;;;;;;;5019113;28;20229;-61
2022/10/02 01:55:35;;;;;;;1.20;1.20;;;;;;;;;;5025351;28;20643;-60
2022/10/02 01:58:04;;;;;;;1.10;1.10;;;;;;;;;;5028634;28;20813;-60
2022/10/02 02:00:33;;;;;;;1.20;1.20;;;;;;;;;;5002783;28;20340;-59
2022/10/02 02:03:20;;;;;;;1.10;1.10;;;;;;;;;;5036606;28;20707;-60
2022/10/02 02:05:46;;;;;;;1.30;1.30;;;;;;;;;;5023890;28;20231;-60
2022/10/02 02:08:12;;;;;;;1.40;1.40;;;;;;;;;;5028708;28;20265;-58
2022/10/02 02:10:38;;;;;;;1.50;1.50;;;;;;;;;;5010699;28;20231;-59
2022/10/02 02:13:10;;;;;;;1.20;1.20;;;;;;;;;;5017404;28;20583;-60
2022/10/02 02:15:45;;;;;;;1.30;1.30;;;;;;;;;;5027452;28;20221;-58
2022/10/02 02:18:22;;;;;;;1.20;1.20;;;;;;;;;;5022319;28;20219;-60
2022/10/02 02:20:50;;;;;;;1.27;1.27;;;;;;;;;;5017688;28;20218;-59
2022/10/02 02:23:17;;;;;;;1.00;1.00;;;;;;;;;;5022593;28;20215;-59
2022/10/02 02:25:44;;;;;;;1.10;1.10;;;;;;;;;;5012579;28;20223;-60
2022/10/02 02:28:11;;;;;;;1.40;1.40;;;;;;;;;;5016576;28;20321;-59
2022/10/02 02:30:37;;;;;;;1.43;1.43;;;;;;;;;;5030494;28;20223;-59
2022/10/02 02:33:14;;;;;;;1.10;1.10;;;;;;;;;;5019021;28;20758;-60
2022/10/02 02:35:41;;;;;;;1.10;1.10;;;;;;;;;;5026639;28;20239;-59
2022/10/02 02:38:09;;;;;;;1.10;1.10;;;;;;;;;;5026978;28;20969;-60
2022/10/02 02:40:36;;;;;;;1.07;1.07;;;;;;;;;;5023240;28;20231;-59
2022/10/02 02:43:03;;;;;;;1.10;1.10;;;;;;;;;;5025799;28;20714;-59
2022/10/02 02:45:31;;;;;;;1.20;1.20;;;;;;;;;;5021551;28;20269;-60
2022/10/02 02:48:04;;;;;;;1.10;1.10;;;;;;;;;;5025168;28;20225;-60
2022/10/02 02:50:32;;;;;;;1.20;1.20;;;;;;;;;;5028575;28;20281;-60
2022/10/02 02:52:58;;;;;;;1.30;1.30;;;;;;;;;;5010908;28;20235;-59
2022/10/02 02:55:34;;;;;;;1.20;1.20;;;;;;;;;;5009200;28;20266;-60
2022/10/02 02:58:00;;;;;;;1.10;1.10;;;;;;;;;;5024479;28;20951;-60
2022/10/02 03:00:26;;;;;;;1.10;1.10;;;;;;;;;;5019649;28;20219;-58
2022/10/02 03:02:54;;;;;;;1.30;1.30;;;;;;;;;;5007739;28;20365;-59
2022/10/02 03:05:20;;;;;;;1.10;1.10;;;;;;;;;;5017680;28;20237;-58
2022/10/02 03:08:04;;;;;;;1.40;1.40;;;;;;;;;;5034131;28;20614;-60
2022/10/02 03:10:33;;;;;;;1.30;1.30;;;;;;;;;;5014801;28;20251;-59
2022/10/02 03:13:07;;;;;;;1.20;1.20;;;;;;;;;;5015851;28;20228;-59
2022/10/02 03:15:37;;;;;;;1.43;1.43;;;;;;;;;;5032108;28;20229;-59
2022/10/02 03:18:14;;;;;;;1.30;1.30;;;;;;;;;;5002326;28;20629;-60
2022/10/02 03:20:41;;;;;;;1.10;1.10;;;;;;;;;;5024230;28;20232;-60
2022/10/02 03:23:16;;;;;;;1.33;1.33;;;;;;;;;;5022018;28;20248;-60
2022/10/02 03:25:45;;;;;;;1.00;1.00;;;;;;;;;;5026327;28;20231;-60
2022/10/02 03:28:14;;;;;;;1.47;1.47;;;;;;;;;;5039317;28;20306;-59
2022/10/02 03:30:40;;;;;;;1.10;1.10;;;;;;;;;;5020848;28;20598;-60
2022/10/02 03:33:06;;;;;;;1.10;1.10;;;;;;;;;;5015363;28;20219;-60
2022/10/02 03:35:32;;;;;;;1.30;1.30;;;;;;;;;;5019713;28;20221;-59
2022/10/02 03:37:59;;;;;;;1.20;1.20;;;;;;;;;;5029531;28;20713;-59
2022/10/02 03:40:26;;;;;;;1.20;1.20;;;;;;;;;;5025284;28;20288;-59
2022/10/02 03:42:52;;;;;;;1.30;1.30;;;;;;;;;;5038878;28;20225;-60
2022/10/02 03:45:18;;;;;;;1.00;1.00;;;;;;;;;;5018040;28;20234;-60
2022/10/02 03:47:44;;;;;;;1.20;1.20;;;;;;;;;;5010927;28;20223;-60
2022/10/02 03:50:13;;;;;;;1.10;1.10;;;;;;;;;;5025448;28;20219;-59
2022/10/02 03:52:39;;;;;;;1.10;1.10;;;;;;;;;;5011517;28;20228;-59
2022/10/02 03:55:12;;;;;;;1.30;1.30;;;;;;;;;;5023367;28;20263;-59
2022/10/02 03:57:38;;;;;;;1.30;1.30;;;;;;;;;;5036598;28;20231;-59
2022/10/02 04:00:08;;;;;;;1.20;1.20;;;;;;;;;;5023841;28;20224;-60
2022/10/02 04:02:35;;;;;;;1.00;1.00;;;;;;;;;;5024994;28;20653;-58
2022/10/02 04:05:09;;;;;;;0.90;0.90;;;;;;;;;;5030432;28;20232;-60
2022/10/02 04:07:36;;;;;;;1.10;1.10;;;;;;;;;;5024439;28;20222;-59
2022/10/02 04:10:18;;;;;;;1.20;1.20;;;;;;;;;;5022631;28;20618;-59
2022/10/02 04:12:45;;;;;;;1.10;1.10;;;;;;;;;;5024404;28;20227;-59
2022/10/02 04:15:25;;;;;;;1.00;1.00;;;;;;;;;;5013955;28;20228;-59
2022/10/02 04:17:53;;;;;;;1.00;1.00;;;;;;;;;;5029306;28;20721;-59
2022/10/02 04:20:30;;;;;;;1.00;1.00;;;;;;;;;;5025527;28;20231;-59
2022/10/02 04:23:06;;;;;;;1.10;1.10;;;;;;;;;;5029918;28;20216;-59
2022/10/02 04:25:33;;;;;;;0.80;0.80;;;;;;;;;;5028075;28;20648;-59
2022/10/02 04:28:01;;;;;;;0.80;0.80;;;;;;;;;;5052369;28;20231;-60
2022/10/02 04:30:28;;;;;;;0.90;0.90;;;;;;;;;;5006499;28;21087;-59
2022/10/02 04:32:54;;;;;;;0.97;0.97;;;;;;;;;;5018144;28;20224;-60
2022/10/02 04:35:33;;;;;;;0.80;0.80;;;;;;;;;;5036747;28;20222;-60
2022/10/02 04:37:59;;;;;;;0.80;0.80;;;;;;;;;;5039046;28;20228;-59
2022/10/02 04:40:25;;;;;;;0.90;0.90;;;;;;;;;;5035175;28;20250;-60
2022/10/02 04:42:54;;;;;;;0.90;0.90;;;;;;;;;;5028535;28;20306;-59
2022/10/02 04:45:40;;;;;;;0.80;0.80;;;;;;;;;;5000795;28;20903;-59
2022/10/02 04:48:25;;;;;;;0.80;0.80;;;;;;;;;;5030554;28;20343;-58
2022/10/02 04:50:56;;;;;;;0.90;0.90;;;;;;;;;;5035580;28;20286;-59
2022/10/02 04:53:41;;;;;;;0.90;0.90;;;;;;;;;;4998924;28;20226;-59
2022/10/02 04:56:19;;;;;;;0.90;0.90;;;;;;;;;;5008163;28;20217;-59
2022/10/02 04:58:50;;;;;;;0.80;0.80;;;;;;;;;;5001009;28;20259;-59
2022/10/02 05:01:37;;;;;;;0.90;0.90;;;;;;;;;;5019615;28;20236;-59
2022/10/02 05:04:04;;;;;;;0.70;0.70;;;;;;;;;;5017248;28;20351;-59
2022/10/02 05:06:49;;;;;;;1.00;1.00;;;;;;;;;;5025822;28;20244;-59
2022/10/02 05:09:30;;;;;;;0.93;0.93;;;;;;;;;;5031931;28;20305;-59
2022/10/02 05:12:05;;;;;;;0.90;0.90;;;;;;;;;;5020399;28;20229;-59
2022/10/02 05:14:40;;;;;;;0.97;0.97;;;;;;;;;;5016461;28;20225;-59
2022/10/02 05:17:12;;;;;;;0.80;0.80;;;;;;;;;;5020700;28;20224;-59
2022/10/02 05:19:48;;;;;;;0.80;0.80;;;;;;;;;;5023224;28;20303;-59
2022/10/02 05:22:20;;;;;;;0.90;0.90;;;;;;;;;;5011692;28;20240;-59
2022/10/02 05:24:48;;;;;;;0.80;0.80;;;;;;;;;;5018514;28;20663;-59
2022/10/02 05:27:14;;;;;;;0.80;0.80;;;;;;;;;;5035777;28;20229;-59
2022/10/02 05:29:51;;;;;;;0.70;0.70;;;;;;;;;;5037388;28;20263;-59
2022/10/02 05:32:29;;;;;;;0.90;0.90;;;;;;;;;;5021020;28;20233;-60
2022/10/02 05:35:04;;;;;;;1.07;1.07;;;;;;;;;;5034336;28;20224;-59
2022/10/02 05:37:36;;;;;;;0.90;0.90;;;;;;;;;;5029520;28;20275;-60
2022/10/02 05:40:11;;;;;;;0.90;0.90;;;;;;;;;;5034347;28;20349;-59
2022/10/02 05:42:44;;;;;;;0.90;0.90;;;;;;;;;;4994249;28;20248;-58
2022/10/02 05:45:27;;;;;;;0.90;0.90;;;;;;;;;;4988612;28;20230;-59
2022/10/02 05:47:53;;;;;;;0.80;0.80;;;;;;;;;;5009865;28;20224;-59
2022/10/02 05:50:30;;;;;;;0.90;0.90;;;;;;;;;;5007379;28;20268;-59
2022/10/02 05:53:00;;;;;;;0.80;0.80;;;;;;;;;;4997053;28;20481;-59
2022/10/02 05:55:29;;;;;;;0.80;0.80;;;;;;;;;;4988670;28;20786;-59
2022/10/02 05:57:57;;;;;;;0.80;0.80;;;;;;;;;;5004846;28;20352;-59
2022/10/02 06:00:27;;;;;;;0.70;0.70;;;;;;;;;;5006730;28;20225;-59
2022/10/02 06:03:02;;;;;;;1.03;1.03;;;;;;;;;;5011276;28;20222;-59
2022/10/02 06:05:37;;;;;;;0.80;0.80;;;;;;;;;;4983713;28;20827;-59
2022/10/02 06:08:03;;;;;;;0.70;0.70;;;;;;;;;;5018744;28;20222;-59
2022/10/02 06:10:36;;;;;;;0.90;0.90;;;;;;;;;;5005836;28;26292;-59
2022/10/02 06:13:07;;;;;;;0.63;0.63;;;;;;;;;;4991363;28;20601;-59
2022/10/02 06:15:36;;;;;;;0.90;0.90;;;;;;;;;;5009343;28;20259;-59
2022/10/02 06:18:03;;;;;;;0.80;0.80;;;;;;;;;;5020624;28;20304;-59
2022/10/02 06:20:34;;;;;;;0.83;0.83;;;;;;;;;;5012709;28;20804;-59
2022/10/02 06:23:10;;;;;;;0.80;0.80;;;;;;;;;;5018889;28;20564;-59
2022/10/02 06:25:37;;;;;;;0.90;0.90;;;;;;;;;;4999728;28;20592;-58
2022/10/02 06:28:14;;;;;;;0.80;0.80;;;;;;;;;;5020274;28;20231;-58
2022/10/02 06:30:41;;;;;;;0.70;0.70;;;;;;;;;;4992354;28;20304;-59
2022/10/02 06:33:18;;;;;;;0.80;0.80;;;;;;;;;;4989987;28;20226;-59
2022/10/02 06:35:47;;;;;;;0.83;0.83;;;;;;;;;;4984776;28;20239;-59
2022/10/02 06:38:25;;;;;;;0.80;0.80;;;;;;;;;;5017272;28;20225;-59
2022/10/02 06:40:56;;;;;;;0.90;0.90;;;;;;;;;;5021281;28;20744;-59
2022/10/02 06:43:23;;;;;;;0.87;0.87;;;;;;;;;;5025076;28;20228;-59
2022/10/02 06:45:51;;;;;;;0.70;0.70;;;;;;;;;;5021671;28;20260;-59
2022/10/02 06:48:18;;;;;;;0.90;0.90;;;;;;;;;;5029562;28;20234;-59
2022/10/02 06:50:44;;;;;;;1.00;1.00;;;;;;;;;;5040724;28;20705;-59
2022/10/02 06:53:12;;;;;;;0.80;0.80;;;;;;;;;;5023450;28;20323;-58
2022/10/02 06:55:45;;;;;;;0.90;0.90;;;;;;;;;;5022500;28;20287;-59
2022/10/02 06:58:22;;;;;;;0.90;0.90;;;;;;;;;;5023166;28;20220;-59
2022/10/02 07:01:06;;;;;;;0.80;0.80;;;;;;;;;;5033060;28;20942;-59
2022/10/02 07:03:51;;;;;;;0.80;0.80;;;;;;;;;;5040261;28;20626;-59
2022/10/02 07:06:46;;;;;;;0.93;0.93;;;;;;;;;;5042471;28;21847;-59
2022/10/02 07:09:20;;;;;;;0.70;0.70;;;;;;;;;;5030289;28;20243;-59
2022/10/02 07:11:50;;;;;;;0.90;0.90;;;;;;;;;;5032114;28;20872;-58
2022/10/02 07:14:36;;;;;;;0.90;0.90;;;;;;;;;;5005625;28;20246;-59
2022/10/02 07:17:05;;;;;;;0.90;0.90;;;;;;;;;;5010778;28;20219;-59
2022/10/02 07:19:31;;;;;;;0.80;0.80;;;;;;;;;;5027102;28;20223;-58
2022/10/02 07:22:00;;;;;;;0.80;0.80;;;;;;;;;;5022909;28;20306;-59
2022/10/02 07:24:26;;;;;;;0.70;0.70;;;;;;;;;;5027928;28;20300;-58
2022/10/02 07:26:58;;;;;;;0.80;0.80;;;;;;;;;;5028550;28;20235;-59
2022/10/02 07:29:27;;;;;;;0.70;0.70;;;;;;;;;;5004833;28;20314;-59
2022/10/02 07:32:00;;;;;;;0.90;0.90;;;;;;;;;;5019435;28;20311;-59
2022/10/02 07:34:30;;;;;;;0.80;0.80;;;;;;;;;;5017470;28;20294;-58
2022/10/02 07:37:05;;;;;;;0.80;0.80;;;;;;;;;;5004212;28;20226;-59
2022/10/02 07:39:44;;;;;;;0.90;0.90;;;;;;;;;;5031017;28;20345;-59
2022/10/02 07:42:26;;;;;;;0.80;0.80;;;;;;;;;;5002238;28;20294;-59
2022/10/02 07:45:10;;;;;;;0.90;0.90;;;;;;;;;;5008209;28;20246;-60
2022/10/02 07:47:46;;;;;;;1.00;1.00;;;;;;;;;;5019521;28;20231;-59
2022/10/02 07:50:13;;;;;;;0.90;0.90;;;;;;;;;;5008007;28;20358;-59
2022/10/02 07:52:47;;;;;;;0.80;0.80;;;;;;;;;;5019395;28;20704;-59
2022/10/02 07:55:22;;;;;;;0.80;0.80;;;;;;;;;;5011702;28;20505;-59
2022/10/02 07:58:05;;;;;;;0.80;0.80;;;;;;;;;;5026664;28;20236;-59
2022/10/02 08:00:32;;;;;;;0.90;0.90;;;;;;;;;;5026462;28;20241;-58
2022/10/02 08:03:01;;;;;;;0.80;0.80;;;;;;;;;;5003570;28;20231;-60
2022/10/02 08:05:27;;;;;;;1.00;1.00;;;;;;;;;;4989505;28;20230;-59
2022/10/02 08:07:56;;;;;;;0.80;0.80;;;;;;;;;;4983932;28;20225;-58
2022/10/02 08:10:24;;;;;;;0.80;0.80;;;;;;;;;;4998804;28;21237;-58
2022/10/02 08:12:55;;;;;;;0.80;0.80;;;;;;;;;;5002472;28;20223;-58
2022/10/02 08:15:22;;;;;;;0.83;0.83;;;;;;;;;;5007976;28;20230;-59
2022/10/02 08:17:52;;;;;;;0.80;0.80;;;;;;;;;;5026548;28;20748;-59
2022/10/02 08:20:26;;;;;;;0.90;0.90;;;;;;;;;;5013761;28;20220;-59
2022/10/02 08:22:58;;;;;;;1.00;1.00;;;;;;;;;;5019175;28;20223;-59
2022/10/02 08:25:25;;;;;;;0.90;0.90;;;;;;;;;;5016381;28;20252;-59
2022/10/02 08:28:11;;;;;;;0.90;0.90;;;;;;;;;;5004740;27;20224;-59
2022/10/02 08:30:37;;;;;;;0.83;0.83;;;;;;;;;;5018817;28;20256;-59
2022/10/02 08:33:24;;;;;;;0.70;0.70;;;;;;;;;;5028072;28;20330;-59
2022/10/02 08:35:50;;;;;;;0.90;0.90;;;;;;;;;;5006723;28;20293;-59
2022/10/02 08:38:42;;;;;;;0.70;0.70;;;;;;;;;;5027090;28;20689;-58
2022/10/02 08:41:08;;;;;;;0.80;0.80;;;;;;;;;;5006762;28;20250;-58
2022/10/02 08:43:47;;;;;;;0.70;0.70;;;;;;;;;;5022365;28;20231;-58
2022/10/02 08:46:20;;;;;;;0.80;0.80;;;;;;;;;;5002931;27;20242;-59
2022/10/02 08:48:55;;;;;;;0.90;0.90;;;;;;;;;;5021318;28;20239;-58
2022/10/02 08:51:38;;;;;;;0.80;0.80;;;;;;;;;;5035760;28;20331;-58
2022/10/02 08:54:14;;;;;;;0.80;0.80;;;;;;;;;;5022690;28;20315;-59
2022/10/02 08:56:59;;;;;;;1.00;1.00;;;;;;;;;;5040591;28;20215;-59
2022/10/02 08:59:33;;;;;;;1.20;1.20;;;;;;;;;;5014902;28;20228;-58
2022/10/02 09:02:11;;;;;;;1.20;1.20;;;;;;;;;;5017728;28;20682;-57
2022/10/02 09:04:59;;;;;;;1.10;1.10;;;;;;;;;;5037659;28;20233;-57
2022/10/02 09:07:41;;;;;;;1.10;1.10;;;;;;;;;;5025335;28;20230;-57
2022/10/02 09:10:27;;;;;;;1.10;1.10;;;;;;;;;;5028308;28;20350;-57
2022/10/02 09:13:11;;;;;;;1.30;1.30;;;;;;;;;;4976158;28;21015;-58
2022/10/02 09:15:43;;;;;;;1.20;1.20;;;;;;;;;;5014262;28;20232;-59
2022/10/02 09:18:19;;;;;;;1.30;1.30;;;;;;;;;;5024712;28;20786;-58
2022/10/02 09:21:07;;;;;;;1.30;1.30;;;;;;;;;;5042723;28;20221;-58
2022/10/02 09:23:39;;;;;;;1.30;1.30;;;;;;;;;;5016805;28;20232;-58
2022/10/02 09:26:24;;;;;;;1.30;1.30;;;;;;;;;;5039869;28;20696;-57
2022/10/02 09:29:05;;;;;;;1.10;1.10;;;;;;;;;;5024795;28;20351;-58
2022/10/02 09:31:39;;;;;;;1.40;1.40;;;;;;;;;;5017015;28;20612;-58
2022/10/02 09:34:23;;;;;;;1.40;1.40;;;;;;;;;;5007636;28;20604;-58
2022/10/02 09:37:02;;;;;;;1.40;1.40;;;;;;;;;;5038005;27;20229;-58
2022/10/02 09:39:43;;;;;;;1.10;1.10;;;;;;;;;;5011629;28;20220;-59
2022/10/02 09:42:15;;;;;;;1.17;1.17;;;;;;;;;;5023487;28;20243;-59
2022/10/02 09:44:57;;;;;;;1.17;1.17;;;;;;;;;;4991505;28;20233;-59
2022/10/02 09:47:42;;;;;;;1.10;1.10;;;;;;;;;;5012160;28;20255;-58
2022/10/02 09:50:09;;;;;;;1.10;1.10;;;;;;;;;;5018925;28;20220;-58
2022/10/02 09:52:50;;;;;;;1.10;1.10;;;;;;;;;;5019352;28;20234;-58
2022/10/02 09:55:19;;;;;;;1.23;1.23;;;;;;;;;;5042280;28;20264;-58
2022/10/02 09:57:54;;;;;;;1.00;1.00;;;;;;;;;;5011589;28;20234;-59
2022/10/02 10:00:45;;;;;;;0.90;0.90;;;;;;;;;;5028260;28;20784;-57
2022/10/02 10:03:17;;;;;;;1.00;1.00;;;;;;;;;;5025098;28;20260;-57
2022/10/02 10:05:54;;;;;;;0.90;0.90;;;;;;;;;;4999624;28;20722;-58
2022/10/02 10:08:35;;;;;;;1.00;1.00;;;;;;;;;;4982909;28;20747;-61
2022/10/02 10:11:12;;;;;;;1.10;1.10;;;;;;;;;;5023606;28;20216;-59
2022/10/02 10:13:58;;;;;;;1.10;1.10;;;;;;;;;;5007263;28;20224;-60
2022/10/02 10:16:28;;;;;;;1.10;1.10;;;;;;;;;;5022123;27;20222;-60
2022/10/02 10:19:13;;;;;;;1.37;1.37;;;;;;;;;;5023026;28;20225;-57
2022/10/02 10:21:40;;;;;;;1.20;1.20;;;;;;;;;;5009290;28;20627;-58
2022/10/02 10:24:08;;;;;;;1.30;1.30;;;;;;;;;;5019855;28;20541;-57
2022/10/02 10:26:53;;;;;;;1.20;1.20;;;;;;;;;;4980025;28;20237;-58
2022/10/02 10:29:38;;;;;;;1.40;1.40;;;;;;;;;;5024112;28;20221;-57
2022/10/02 10:32:16;;;;;;;1.30;1.30;;;;;;;;;;5018311;28;20647;-57
2022/10/02 10:34:50;;;;;;;1.50;1.50;;;;;;;;;;5018471;28;20780;-58
2022/10/02 10:40:14;;;;;;;1.40;1.40;;;;;;;;;;5037044;27;20242;-57
2022/10/02 10:42:59;;;;;;;1.20;1.20;;;;;;;;;;5004131;28;20656;-58
2022/10/02 10:45:43;;;;;;;1.40;1.40;;;;;;;;;;5006744;28;20232;-58
2022/10/02 10:48:09;;;;;;;1.65;1.65;;;;;;;;;;5010407;28;21138;-57
2022/10/02 10:50:46;;;;;;;1.40;1.40;;;;;;;;;;5026763;28;21786;-57
2022/10/02 10:53:21;;;;;;;0.80;0.80;;;;;;;;;;4986374;28;20228;-57
2022/10/02 10:55:47;;;;;;;0.80;0.80;;;;;;;;;;5017418;28;20227;-57
2022/10/02 10:58:15;;;;;;;0.80;0.80;;;;;;;;;;5014599;28;20235;-57
2022/10/02 11:00:57;;;;;;;0.98;0.98;;;;;;;;;;4993329;28;20244;-57
2022/10/02 11:03:38;;;;;;;0.90;0.90;;;;;;;;;;5003641;28;20227;-57
2022/10/02 11:06:08;;;;;;;1.00;1.00;;;;;;;;;;5021782;28;20841;-58
2022/10/02 11:08:34;;;;;;;0.90;0.90;;;;;;;;;;5005519;28;20225;-58
2022/10/02 11:11:04;;;;;;;0.80;0.80;;;;;;;;;;5011191;28;20230;-57
2022/10/02 11:13:45;;;;;;;0.90;0.90;;;;;;;;;;4989575;28;20251;-57
2022/10/02 11:16:12;;;;;;;0.90;0.90;;;;;;;;;;5023164;28;20228;-57
2022/10/02 11:18:51;;;;;;;0.80;0.80;;;;;;;;;;5012855;28;20278;-57
2022/10/02 11:21:33;;;;;;;0.90;0.90;;;;;;;;;;4973996;28;20707;-58
2022/10/02 11:23:59;;;;;;;0.90;0.90;;;;;;;;;;4933782;28;20600;-59
2022/10/02 11:26:28;;;;;;;0.90;0.90;;;;;;;;;;4989764;28;20234;-57
2022/10/02 11:29:03;;;;;;;0.93;0.93;;;;;;;;;;4997317;28;20657;-58
2022/10/02 11:31:49;;;;;;;0.80;0.80;;;;;;;;;;4977663;28;20556;-58
2022/10/02 11:34:16;;;;;;;0.80;0.80;;;;;;;;;;4964795;28;20224;-58
2022/10/02 11:36:55;;;;;;;1.20;1.20;;;;;;;;;;4955098;28;20216;-59
2022/10/02 11:39:40;;;;;;;0.80;0.80;;;;;;;;;;4972556;28;20230;-58
2022/10/02 11:42:25;;;;;;;0.80;0.80;;;;;;;;;;4979578;28;20250;-60
2022/10/02 11:44:55;;;;;;;0.80;0.80;;;;;;;;;;4964563;28;20227;-59
2022/10/02 11:47:27;;;;;;;0.80;0.80;;;;;;;;;;4964941;28;20240;-60
2022/10/02 11:49:58;;;;;;;0.80;0.80;;;;;;;;;;4955619;28;20693;-60
2022/10/02 11:52:27;;;;;;;0.80;0.80;;;;;;;;;;4995543;28;20329;-60
2022/10/02 11:55:12;;;;;;;0.80;0.80;;;;;;;;;;5005932;28;20663;-60
2022/10/02 11:57:41;;;;;;;0.90;0.90;;;;;;;;;;4985988;28;20232;-60
2022/10/02 12:00:07;;;;;;;0.80;0.80;;;;;;;;;;4950926;28;20858;-60
2022/10/02 12:02:54;;;;;;;0.82;0.82;;;;;;;;;;4960497;28;20247;-61
2022/10/02 12:05:29;;;;;;;0.80;0.80;;;;;;;;;;4964546;28;20721;-61
2022/10/02 12:08:23;;;;;;;0.80;0.80;;;;;;;;;;4953530;28;20222;-60
2022/10/02 12:11:08;;;;;;;0.80;0.80;;;;;;;;;;4977835;28;20726;-60
2022/10/02 12:13:49;;;;;;;0.80;0.80;;;;;;;;;;4993134;28;20311;-61
2022/10/02 12:16:18;;;;;;;0.80;0.80;;;;;;;;;;5011935;28;20228;-60
2022/10/02 12:19:00;;;;;;;0.90;0.90;;;;;;;;;;5012599;28;20585;-60
2022/10/02 12:27:11;;;;;;;1.10;1.10;;;;;;;;;;5018309;28;20289;-60
2022/10/02 12:29:40;;;;;;;1.10;1.10;;;;;;;;;;5029966;28;20887;-60
2022/10/02 12:32:14;;;;;;;1.20;1.20;;;;;;;;;;5022407;28;20232;-60
2022/10/02 12:34:59;;;;;;;1.10;1.10;;;;;;;;;;5017021;28;20234;-61
2022/10/02 12:37:37;;;;;;;1.30;1.30;;;;;;;;;;4996234;28;20215;-60
2022/10/02 12:40:06;;;;;;;1.20;1.20;;;;;;;;;;5030729;28;20231;-59
2022/10/02 12:42:39;;;;;;;1.20;1.20;;;;;;;;;;5011942;28;20220;-59
2022/10/02 12:45:27;;;;;;;1.20;1.20;;;;;;;;;;5021725;28;20312;-59
2022/10/02 12:48:02;;;;;;;1.20;1.20;;;;;;;;;;5029600;28;20270;-59
2022/10/02 12:50:50;;;;;;;1.10;1.10;;;;;;;;;;5040899;28;20233;-60
2022/10/02 12:53:31;;;;;;;1.10;1.10;;;;;;;;;;5031188;28;20234;-59
2022/10/02 12:56:06;;;;;;;1.10;1.10;;;;;;;;;;5006352;28;20236;-58
2022/10/02 12:58:41;;;;;;;1.00;1.00;;;;;;;;;;5004497;28;20251;-58
2022/10/02 13:01:10;;;;;;;0.80;0.80;;;;;;;;;;5023013;28;20223;-58
2022/10/02 13:03:42;;;;;;;0.80;0.80;;;;;;;;;;5046244;28;20732;-58
2022/10/02 13:06:21;;;;;;;0.90;0.90;;;;;;;;;;5021185;28;20261;-59
2022/10/02 13:09:06;;;;;;;0.82;0.82;;;;;;;;;;5005924;28;20700;-59
2022/10/02 13:11:32;;;;;;;0.90;0.90;;;;;;;;;;5046239;28;20358;-58
2022/10/02 13:14:16;;;;;;;0.82;0.82;;;;;;;;;;5035742;28;20829;-58
2022/10/02 13:16:45;;;;;;;0.90;0.90;;;;;;;;;;5017865;28;20229;-60
2022/10/02 13:19:30;;;;;;;0.90;0.90;;;;;;;;;;5054126;28;20785;-58
2022/10/02 13:22:12;;;;;;;0.90;0.90;;;;;;;;;;5043618;28;22016;-58
2022/10/02 13:24:53;;;;;;;0.90;0.90;;;;;;;;;;5019869;28;20294;-58
2022/10/02 13:27:26;;;;;;;0.90;0.90;;;;;;;;;;5047695;28;20219;-58
2022/10/02 13:29:53;;;;;;;0.90;0.90;;;;;;;;;;5033706;28;20222;-58
2022/10/02 13:32:41;;;;;;;0.82;0.82;;;;;;;;;;5043645;28;20215;-58
2022/10/02 13:35:15;;;;;;;0.90;0.90;;;;;;;;;;5042887;28;20234;-58
2022/10/02 13:37:56;;;;;;;1.00;1.00;;;;;;;;;;5025824;28;20211;-58
2022/10/02 13:40:30;;;;;;;1.00;1.00;;;;;;;;;;5027546;28;20232;-58
2022/10/02 13:43:18;;;;;;;0.90;0.90;;;;;;;;;;5036037;28;20235;-58
2022/10/02 13:45:51;;;;;;;0.88;0.88;;;;;;;;;;5031470;28;20242;-58
2022/10/02 13:48:21;;;;;;;0.93;0.93;;;;;;;;;;5016129;28;20336;-59
2022/10/02 13:50:51;;;;;;;0.90;0.90;;;;;;;;;;5011546;28;20281;-59
2022/10/02 13:53:19;;;;;;;0.80;0.80;;;;;;;;;;5040518;28;20227;-58
2022/10/02 13:55:52;;;;;;;0.90;0.90;;;;;;;;;;5017697;28;20657;-59
2022/10/02 13:58:27;;;;;;;0.80;0.80;;;;;;;;;;5035502;28;20763;-60
2022/10/02 14:01:11;;;;;;;0.82;0.82;;;;;;;;;;5017516;28;20259;-58
2022/10/02 14:03:37;;;;;;;0.80;0.80;;;;;;;;;;5026061;28;20232;-58
2022/10/02 14:06:06;;;;;;;0.80;0.80;;;;;;;;;;5017050;28;20235;-58
2022/10/02 14:08:32;;;;;;;0.80;0.80;;;;;;;;;;5030900;28;20224;-60
2022/10/02 14:11:15;;;;;;;0.80;0.80;;;;;;;;;;5031601;28;20311;-57
2022/10/02 14:13:44;;;;;;;0.82;0.82;;;;;;;;;;5025703;28;20227;-58
2022/10/02 14:16:29;;;;;;;0.85;0.85;;;;;;;;;;5040174;28;20692;-58
2022/10/02 14:19:10;;;;;;;0.90;0.90;;;;;;;;;;5034187;28;20228;-58
2022/10/02 14:21:36;;;;;;;0.88;0.88;;;;;;;;;;5015239;28;20223;-58
2022/10/02 14:24:02;;;;;;;0.70;0.70;;;;;;;;;;5048128;28;20228;-57
2022/10/02 14:26:34;;;;;;;0.80;0.80;;;;;;;;;;5044761;28;20285;-58
2022/10/02 14:29:09;;;;;;;0.88;0.88;;;;;;;;;;5033288;28;20223;-58
2022/10/02 14:31:51;;;;;;;0.80;0.80;;;;;;;;;;5028272;28;20764;-58
2022/10/02 14:34:26;;;;;;;0.80;0.80;;;;;;;;;;5050399;28;20233;-58
2022/10/02 14:36:52;;;;;;;0.80;0.80;;;;;;;;;;5027252;28;20729;-58
2022/10/02 14:39:44;;;;;;;0.93;0.93;;;;;;;;;;5035865;28;20258;-58
2022/10/02 14:42:33;;;;;;;0.80;0.80;;;;;;;;;;5023147;28;20234;-58
2022/10/02 14:45:25;;;;;;;0.80;0.80;;;;;;;;;;5028240;28;20224;-58
2022/10/02 14:47:54;;;;;;;0.80;0.80;;;;;;;;;;5034955;28;20238;-57
2022/10/02 14:50:22;;;;;;;0.80;0.80;;;;;;;;;;5019867;28;20391;-57
2022/10/02 14:52:54;;;;;;;0.90;0.90;;;;;;;;;;5030114;28;20613;-57
2022/10/02 14:55:28;;;;;;;0.80;0.80;;;;;;;;;;5035955;28;20234;-58
2022/10/02 14:58:13;;;;;;;0.80;0.80;;;;;;;;;;5023365;28;20231;-58
2022/10/02 15:00:57;;;;;;;0.80;0.80;;;;;;;;;;5038815;28;20768;-58
2022/10/02 15:03:42;;;;;;;1.00;1.00;;;;;;;;;;5037165;28;20227;-59
2022/10/02 15:06:20;;;;;;;0.80;0.80;;;;;;;;;;5028255;28;20698;-59
2022/10/02 15:08:56;;;;;;;1.00;1.00;;;;;;;;;;5032225;28;20230;-58
2022/10/02 15:11:35;;;;;;;0.80;0.80;;;;;;;;;;5048825;28;20228;-59
2022/10/02 15:14:18;;;;;;;0.90;0.90;;;;;;;;;;5031601;28;20250;-57
2022/10/02 15:19:36;;;;;;;0.90;0.90;;;;;;;;;;5025797;28;20321;-59
2022/10/02 15:22:18;;;;;;;1.00;1.00;;;;;;;;;;5028646;28;20349;-59
2022/10/02 15:24:44;;;;;;;0.90;0.90;;;;;;;;;;5031550;28;20231;-59
2022/10/02 15:27:26;;;;;;;0.90;0.90;;;;;;;;;;5030099;28;20232;-59
2022/10/02 15:30:05;;;;;;;1.00;1.00;;;;;;;;;;5012392;28;20254;-60
2022/10/02 15:32:49;;;;;;;0.97;0.97;;;;;;;;;;5043211;28;20313;-59
2022/10/02 15:35:21;;;;;;;0.90;0.90;;;;;;;;;;5009730;28;20223;-58